Time;durP1;ratioP1;P1;durP2;ratioP2;P2;SDS_P1;SDS_P2;PMS_P1;PMS_P2;Temp;Humidity;BMP_temperature;BMP_pressure;BME280_temperature;BME280_humidity;BME280_pressure;Samples;Min_cycle;Max_cycle;Signal;HPM_P1;HPM_P2
2022/03/18 00:02:12;;;;;;;246.20;211.75;;;;;;;15.83;37.00;94973.63;4999999;28;20061;-60
2022/03/18 00:04:37;;;;;;;230.13;197.10;;;;;;;15.84;37.19;94968.97;5005244;28;20136;-62
2022/03/18 00:07:03;;;;;;;230.73;199.57;;;;;;;15.82;37.30;94972.84;5001471;28;20475;-61
2022/03/18 00:09:29;;;;;;;220.88;196.38;;;;;;;15.83;37.21;94965.53;5004757;28;20053;-62
2022/03/18 00:11:54;;;;;;;230.20;199.98;;;;;;;15.82;37.15;94959.38;4998999;28;20772;-62
2022/03/18 00:14:21;;;;;;;227.90;199.65;;;;;;;15.79;37.19;94967.53;5009515;28;20112;-61
2022/03/18 00:16:46;;;;;;;222.77;193.23;;;;;;;15.83;37.15;94976.31;5008322;28;20065;-62
2022/03/18 00:19:12;;;;;;;225.50;195.43;;;;;;;15.83;37.11;94970.91;5009489;28;20100;-61
2022/03/18 00:21:38;;;;;;;231.05;199.95;;;;;;;15.82;37.03;94972.84;5003184;28;20615;-61
2022/03/18 00:24:05;;;;;;;233.13;203.18;;;;;;;15.84;37.12;94974.38;5003785;28;20106;-62
2022/03/18 00:26:31;;;;;;;230.38;198.70;;;;;;;15.82;37.08;94974.78;5008371;28;20053;-62
2022/03/18 00:28:56;;;;;;;240.05;210.77;;;;;;;15.82;37.25;94969.41;5008256;28;20061;-61
2022/03/18 00:31:22;;;;;;;234.23;201.35;;;;;;;15.81;37.10;94976.72;5004984;28;20104;-60
2022/03/18 00:33:47;;;;;;;232.70;200.13;;;;;;;15.79;37.08;94970.22;5009925;28;20079;-61
2022/03/18 00:36:13;;;;;;;243.00;211.80;;;;;;;15.80;37.12;94972.50;5003634;28;20033;-62
2022/03/18 00:38:39;;;;;;;234.27;201.00;;;;;;;15.80;37.14;94972.50;5003713;28;20115;-62
2022/03/18 00:41:05;;;;;;;225.02;195.20;;;;;;;15.80;36.98;94967.13;5004454;28;20049;-62
2022/03/18 00:43:31;;;;;;;242.40;206.90;;;;;;;15.79;37.06;94967.53;5003374;28;20080;-61
2022/03/18 00:45:57;;;;;;;219.18;192.95;;;;;;;15.79;37.11;94968.28;5012635;28;20669;-60
2022/03/18 00:53:51;;;;;;;225.35;192.35;;;;;;;15.80;37.04;94966.34;5007744;28;20507;-61
2022/03/18 00:56:17;;;;;;;233.98;198.77;;;;;;;15.76;37.06;94963.72;5010860;28;20054;-62
2022/03/18 00:58:43;;;;;;;220.90;193.60;;;;;;;15.77;37.01;94972.56;5008998;28;20107;-61
2022/03/18 01:01:09;;;;;;;238.40;202.30;;;;;;;15.76;37.15;94971.06;5009355;28;20512;-61
2022/03/18 01:03:34;;;;;;;225.93;197.27;;;;;;;15.75;37.23;94970.28;5014974;28;20103;-62
2022/03/18 01:06:00;;;;;;;218.10;189.80;;;;;;;15.75;37.06;94969.53;5004835;28;20642;-62
2022/03/18 01:08:25;;;;;;;223.25;188.85;;;;;;;15.75;37.08;94964.91;5009160;28;20045;-62
2022/03/18 01:10:52;;;;;;;232.75;197.70;;;;;;;15.76;37.32;94965.66;5002522;28;20576;-62
2022/03/18 01:13:17;;;;;;;226.88;196.68;;;;;;;15.77;37.14;94972.56;5001483;28;20049;-62
2022/03/18 01:15:43;;;;;;;227.95;193.38;;;;;;;15.77;37.20;94965.25;5004036;28;20108;-61
2022/03/18 01:18:08;;;;;;;234.93;204.60;;;;;;;15.77;37.11;94970.63;5003711;28;20053;-63
2022/03/18 01:20:34;;;;;;;232.13;199.45;;;;;;;15.78;37.14;94974.09;5007782;28;20046;-62
2022/03/18 01:23:00;;;;;;;227.65;197.55;;;;;;;15.78;36.97;94966.75;5006879;28;20038;-62
2022/03/18 01:25:26;;;;;;;238.20;203.98;;;;;;;15.78;37.08;94976.78;5008778;28;20050;-61
2022/03/18 01:27:52;;;;;;;226.68;197.18;;;;;;;15.78;37.06;94971.41;5007297;28;20115;-62
2022/03/18 01:30:17;;;;;;;234.98;199.55;;;;;;;15.79;36.97;94981.00;5003873;28;20046;-61
2022/03/18 01:32:43;;;;;;;233.50;194.98;;;;;;;15.79;36.99;94972.91;5003636;28;20165;-61
2022/03/18 01:35:09;;;;;;;216.77;187.65;;;;;;;15.79;36.88;94976.38;5004546;28;20105;-61
2022/03/18 01:37:35;;;;;;;228.85;201.70;;;;;;;15.80;36.83;94977.13;5007174;28;20467;-61
2022/03/18 01:40:00;;;;;;;222.85;193.57;;;;;;;15.77;36.88;94976.03;5007092;28;20156;-61
2022/03/18 01:42:26;;;;;;;219.93;188.43;;;;;;;15.75;36.91;94975.69;5007077;28;20050;-60
2022/03/18 01:44:51;;;;;;;232.55;201.40;;;;;;;15.77;36.85;94975.28;5007919;28;20561;-60
2022/03/18 01:47:17;;;;;;;234.15;200.05;;;;;;;15.78;36.99;94979.50;5008760;28;20442;-61
2022/03/18 01:49:43;;;;;;;226.02;197.48;;;;;;;15.78;36.95;94979.50;5005022;28;20041;-60
2022/03/18 01:52:10;;;;;;;239.10;204.32;;;;;;;15.78;36.82;94974.09;5000158;28;20072;-62
2022/03/18 01:54:45;;;;;;;223.70;192.93;;;;;;;15.78;36.74;94974.84;5002629;28;20417;-61
2022/03/18 01:57:12;;;;;;;233.45;201.30;;;;;;;15.79;36.94;94978.31;5011884;28;20056;-61
2022/03/18 01:59:38;;;;;;;223.15;194.13;;;;;;;15.78;36.88;94974.84;5010351;28;20091;-61
2022/03/18 02:02:04;;;;;;;219.95;190.15;;;;;;;15.78;36.80;94979.50;5004688;28;20050;-60
2022/03/18 02:04:32;;;;;;;219.73;188.95;;;;;;;15.76;36.73;94974.50;5010122;28;20141;-64
2022/03/18 02:06:59;;;;;;;226.50;195.52;;;;;;;15.76;36.73;94976.44;5012215;28;20050;-60
2022/03/18 02:09:25;;;;;;;226.98;195.65;;;;;;;15.75;36.73;94983.78;5005472;28;20733;-60
2022/03/18 02:11:51;;;;;;;230.48;196.38;;;;;;;15.75;36.74;94983.03;5008340;28;21760;-62
2022/03/18 02:14:49;;;;;;;220.35;186.90;;;;;;;15.73;36.68;94980.75;5006196;28;20050;-61
2022/03/18 02:17:16;;;;;;;226.82;193.43;;;;;;;15.75;36.76;94997.25;4996004;28;20046;-61
2022/03/18 02:19:43;;;;;;;223.35;193.77;;;;;;;15.74;36.73;94978.78;5006439;28;20092;-61
2022/03/18 02:22:22;;;;;;;222.60;192.10;;;;;;;15.76;36.63;94989.94;5005887;28;20042;-61
2022/03/18 02:24:52;;;;;;;218.68;187.98;;;;;;;15.75;36.74;94988.41;5007785;28;20056;-61
2022/03/18 02:27:19;;;;;;;227.73;194.88;;;;;;;15.75;36.73;94985.72;5009131;28;20042;-61
2022/03/18 02:29:45;;;;;;;225.68;196.40;;;;;;;15.76;36.56;94981.84;5004195;28;20037;-61
2022/03/18 02:32:12;;;;;;;230.73;201.23;;;;;;;15.75;36.56;94985.72;5011505;28;20099;-61
2022/03/18 02:34:39;;;;;;;219.63;195.05;;;;;;;15.75;36.53;94985.72;5005278;28;20110;-61
2022/03/18 02:37:06;;;;;;;232.35;201.27;;;;;;;15.74;36.47;94986.88;5003644;28;20092;-60
2022/03/18 02:39:32;;;;;;;225.20;192.88;;;;;;;15.74;36.62;94992.28;5003158;28;20180;-61
2022/03/18 02:41:57;;;;;;;224.75;192.20;;;;;;;15.74;36.54;94989.59;5006490;28;20486;-61
2022/03/18 02:44:23;;;;;;;238.80;202.10;;;;;;;15.74;36.61;94997.69;5004774;28;20041;-61
2022/03/18 02:46:48;;;;;;;219.90;190.45;;;;;;;15.73;36.47;94996.91;5005779;28;20100;-62
2022/03/18 02:49:14;;;;;;;237.80;204.02;;;;;;;15.73;36.53;94993.47;5004805;28;20390;-62
2022/03/18 02:51:39;;;;;;;224.65;196.63;;;;;;;15.72;36.47;95000.78;5004812;28;20382;-61
2022/03/18 02:54:06;;;;;;;226.60;194.50;;;;;;;15.72;36.55;95000.78;5006402;28;20052;-60
2022/03/18 02:56:32;;;;;;;244.48;211.52;;;;;;;15.73;36.55;94996.16;5007523;28;20111;-59
2022/03/18 02:59:00;;;;;;;247.65;209.68;;;;;;;15.71;36.56;94995.81;5002642;28;20041;-61
2022/03/18 03:01:27;;;;;;;243.48;206.95;;;;;;;15.71;36.51;94993.88;5004289;28;20049;-62
2022/03/18 03:03:54;;;;;;;231.07;193.68;;;;;;;15.70;36.56;94986.19;5005720;28;20103;-61
2022/03/18 03:09:03;;;;;;;215.32;186.35;;;;;;;15.71;36.54;94996.56;5006014;28;21646;-61
2022/03/18 03:11:29;;;;;;;245.32;209.45;;;;;;;15.73;36.34;94996.91;5005701;28;20555;-61
2022/03/18 03:13:55;;;;;;;219.25;186.82;;;;;;;15.71;36.44;94996.56;5007840;28;20053;-62
2022/03/18 03:16:21;;;;;;;224.80;196.23;;;;;;;15.73;36.49;95002.31;5010179;28;20049;-61
2022/03/18 03:18:47;;;;;;;232.85;198.77;;;;;;;15.72;36.44;95002.72;5003801;28;20049;-59
2022/03/18 03:21:14;;;;;;;235.80;200.35;;;;;;;15.72;36.66;95003.47;5003759;28;20122;-61
2022/03/18 03:23:41;;;;;;;225.00;192.73;;;;;;;15.73;36.27;95009.63;5002761;28;20041;-60
2022/03/18 03:26:06;;;;;;;222.77;195.32;;;;;;;15.71;36.41;95001.97;5002864;28;20053;-60
2022/03/18 03:28:32;;;;;;;241.25;203.02;;;;;;;15.73;36.47;95009.63;5001403;28;20520;-62
2022/03/18 03:30:58;;;;;;;218.43;192.73;;;;;;;15.73;36.53;95010.41;5010186;28;20421;-61
2022/03/18 03:33:24;;;;;;;232.02;202.07;;;;;;;15.71;36.45;95009.28;5004530;28;20579;-61
2022/03/18 03:35:50;;;;;;;225.80;198.85;;;;;;;15.72;36.51;95018.91;5003561;28;20042;-60
2022/03/18 03:38:16;;;;;;;226.40;193.07;;;;;;;15.71;36.55;95015.44;5001800;28;20057;-60
2022/03/18 03:40:43;;;;;;;230.82;200.63;;;;;;;15.71;36.54;95025.47;5002274;28;20050;-61
2022/03/18 03:43:09;;;;;;;221.40;191.48;;;;;;;15.70;36.64;95016.63;5006646;28;20117;-61
2022/03/18 03:45:36;;;;;;;228.75;198.85;;;;;;;15.71;36.63;95020.06;5005432;28;20120;-61
2022/03/18 03:48:03;;;;;;;241.98;205.70;;;;;;;15.70;36.64;95023.94;5000343;28;20045;-60
2022/03/18 03:50:29;;;;;;;222.18;190.30;;;;;;;15.71;36.57;95028.16;4998733;28;20132;-61
2022/03/18 03:52:54;;;;;;;228.10;198.25;;;;;;;15.71;36.61;95037.03;5002500;28;20707;-59
2022/03/18 03:55:20;;;;;;;239.30;202.25;;;;;;;15.72;36.47;95035.09;5005655;28;20565;-61
2022/03/18 03:57:45;;;;;;;221.25;192.88;;;;;;;15.70;36.39;95035.50;5009325;28;20053;-61
2022/03/18 04:00:12;;;;;;;234.82;201.88;;;;;;;15.71;36.45;95042.41;5010625;28;20116;-62
2022/03/18 04:02:38;;;;;;;220.55;190.48;;;;;;;15.69;36.42;95042.06;5007098;28;20080;-61
2022/03/18 04:05:08;;;;;;;237.98;204.30;;;;;;;15.68;36.31;95040.53;5009468;28;20033;-61
2022/03/18 04:07:35;;;;;;;237.38;205.27;;;;;;;15.68;36.43;95040.53;5010728;28;20545;-61
2022/03/18 04:10:02;;;;;;;223.13;193.55;;;;;;;15.69;36.29;95049.41;5005264;28;20041;-61
2022/03/18 04:12:28;;;;;;;230.98;196.57;;;;;;;15.69;36.36;95052.84;5003758;28;20567;-61
2022/03/18 04:14:53;;;;;;;220.48;188.25;;;;;;;15.69;36.45;95054.78;5004266;28;20141;-61
2022/03/18 04:17:19;;;;;;;224.57;192.63;;;;;;;15.70;36.59;95048.22;5003158;28;20049;-60
2022/03/18 04:19:44;;;;;;;222.88;187.60;;;;;;;15.69;36.30;95052.84;5012660;28;20513;-62
2022/03/18 04:22:10;;;;;;;219.85;192.07;;;;;;;15.70;36.35;95056.31;5013605;28;20669;-62
2022/03/18 04:24:36;;;;;;;235.95;200.98;;;;;;;15.68;35.90;95056.72;5003539;28;20798;-62
2022/03/18 04:27:01;;;;;;;221.60;191.10;;;;;;;15.65;36.61;95051.41;5008171;28;20065;-61
2022/03/18 04:29:27;;;;;;;230.38;193.35;;;;;;;15.67;36.36;95062.53;5011018;28;20037;-62
2022/03/18 04:31:53;;;;;;;215.30;187.00;;;;;;;15.68;36.36;95058.66;5010676;28;20080;-61
2022/03/18 04:34:18;;;;;;;233.68;201.88;;;;;;;15.67;36.36;95057.13;5006681;28;20064;-63
2022/03/18 04:36:45;;;;;;;226.63;191.90;;;;;;;15.65;36.25;95060.25;5003897;28;20073;-62
2022/03/18 04:39:11;;;;;;;221.38;187.45;;;;;;;15.67;36.38;95060.59;5008444;28;20467;-62
2022/03/18 04:41:36;;;;;;;230.93;199.63;;;;;;;15.66;36.36;95063.69;5007707;28;20115;-61
2022/03/18 04:44:02;;;;;;;229.32;195.77;;;;;;;15.65;36.28;95062.19;5009326;28;20513;-62
2022/03/18 04:46:29;;;;;;;217.48;185.70;;;;;;;15.65;36.34;95067.56;5014914;28;20057;-62
2022/03/18 04:48:54;;;;;;;217.90;186.30;;;;;;;15.62;36.28;95063.75;5019300;28;20053;-61
2022/03/18 04:51:20;;;;;;;232.60;196.15;;;;;;;15.60;36.46;95066.09;5010374;28;20050;-61
2022/03/18 04:53:46;;;;;;;219.77;187.95;;;;;;;15.61;36.34;95074.97;5013811;28;20141;-61
2022/03/18 04:58:56;;;;;;;225.80;192.13;;;;;;;15.60;36.39;95068.06;5013315;28;20045;-61
2022/03/18 05:01:21;;;;;;;222.95;192.05;;;;;;;15.61;36.41;95074.97;5009483;28;20061;-61
2022/03/18 05:03:46;;;;;;;221.70;191.15;;;;;;;15.62;36.40;95073.78;5012942;28;20050;-62
2022/03/18 05:06:12;;;;;;;221.45;186.30;;;;;;;15.65;36.36;95078.34;5010020;28;20064;-62
2022/03/18 05:08:38;;;;;;;221.02;191.13;;;;;;;15.67;36.47;95079.47;5012033;28;20050;-63
2022/03/18 05:11:03;;;;;;;217.95;186.90;;;;;;;15.69;36.23;95079.06;5013060;28;20045;-60
2022/03/18 05:13:29;;;;;;;221.65;190.80;;;;;;;15.69;36.15;95079.81;5014407;28;20108;-61
2022/03/18 05:15:56;;;;;;;214.75;187.27;;;;;;;15.70;36.18;95081.34;5016259;28;20095;-63
2022/03/18 05:18:22;;;;;;;221.70;187.43;;;;;;;15.69;36.09;95085.22;5010081;28;20479;-63
2022/03/18 05:20:47;;;;;;;221.02;191.45;;;;;;;15.70;36.10;95085.97;5014390;28;20049;-62
2022/03/18 05:23:14;;;;;;;221.73;191.13;;;;;;;15.70;36.19;95094.06;5011387;28;20038;-62
2022/03/18 05:25:40;;;;;;;220.80;194.48;;;;;;;15.69;36.15;95092.53;5015685;28;20132;-63
2022/03/18 05:28:07;;;;;;;221.25;186.90;;;;;;;15.72;36.11;95097.13;5013312;28;20529;-63
2022/03/18 05:30:33;;;;;;;220.18;194.95;;;;;;;15.74;35.96;95094.75;5012641;28;20561;-60
2022/03/18 05:32:59;;;;;;;226.63;197.60;;;;;;;15.75;35.98;95099.75;5010647;28;20133;-61
2022/03/18 05:35:25;;;;;;;221.35;195.10;;;;;;;15.75;35.89;95097.06;5012653;28;20056;-62
2022/03/18 05:37:50;;;;;;;234.70;201.52;;;;;;;15.76;35.83;95106.66;5014133;28;20049;-66
2022/03/18 05:40:18;;;;;;;223.70;194.18;;;;;;;15.73;35.82;95101.34;5012101;28;20063;-62
2022/03/18 05:42:46;;;;;;;216.82;187.35;;;;;;;15.72;35.90;95110.59;5014447;28;20049;-60
2022/03/18 05:45:12;;;;;;;218.02;187.48;;;;;;;15.72;35.84;95114.06;5009727;28;20042;-62
2022/03/18 05:47:38;;;;;;;226.50;196.00;;;;;;;15.72;35.78;95116.75;5018096;28;20430;-61
2022/03/18 05:50:06;;;;;;;221.40;193.43;;;;;;;15.73;35.86;95112.13;5015829;28;20044;-62
2022/03/18 05:52:32;;;;;;;222.20;190.10;;;;;;;15.73;35.87;95118.28;5016149;28;20050;-61
2022/03/18 05:54:58;;;;;;;220.43;193.57;;;;;;;15.75;35.91;95121.31;5023933;28;20064;-62
2022/03/18 05:57:27;;;;;;;223.48;193.02;;;;;;;15.76;35.81;95119.38;5019338;28;20042;-62
2022/03/18 05:59:55;;;;;;;223.77;193.75;;;;;;;15.77;35.74;95124.38;5017026;28;20037;-62
2022/03/18 06:02:21;;;;;;;220.75;189.07;;;;;;;15.77;35.71;95127.06;5017232;28;20241;-62
2022/03/18 06:04:47;;;;;;;220.93;196.57;;;;;;;15.78;35.81;95133.22;5008215;28;20152;-61
2022/03/18 06:07:14;;;;;;;215.10;185.75;;;;;;;15.77;35.59;95129.00;5013054;28;20100;-62
2022/03/18 06:12:23;;;;;;;214.23;183.82;;;;;;;15.77;35.66;95131.69;5018876;28;20060;-62
2022/03/18 06:14:48;;;;;;;224.43;189.98;;;;;;;15.74;35.67;95129.81;5020278;28;20041;-62
2022/03/18 06:17:14;;;;;;;224.45;196.50;;;;;;;15.74;35.83;95138.69;5012072;28;20049;-61
2022/03/18 06:19:39;;;;;;;216.63;186.90;;;;;;;15.73;35.84;95141.78;5013967;28;20044;-61
2022/03/18 06:22:07;;;;;;;233.73;202.40;;;;;;;15.72;35.84;95145.66;5011326;28;20060;-61
2022/03/18 06:24:33;;;;;;;223.93;192.80;;;;;;;15.70;35.89;95150.69;5009514;28;20057;-62
2022/03/18 06:26:58;;;;;;;225.85;197.38;;;;;;;15.70;35.97;95148.00;5016728;28;20038;-61
2022/03/18 06:29:24;;;;;;;222.02;191.80;;;;;;;15.71;35.83;95155.69;5015682;28;20046;-61
2022/03/18 06:31:50;;;;;;;219.52;193.45;;;;;;;15.71;35.82;95152.97;5010962;28;20049;-61
2022/03/18 06:34:17;;;;;;;230.63;200.43;;;;;;;15.70;35.81;95156.84;5003134;28;20065;-60
2022/03/18 06:36:42;;;;;;;225.52;195.57;;;;;;;15.70;35.78;95156.84;5013379;28;20053;-61
2022/03/18 06:39:08;;;;;;;227.32;194.20;;;;;;;15.72;35.87;95164.53;5012453;28;20506;-61
2022/03/18 06:41:35;;;;;;;227.95;193.80;;;;;;;15.74;35.82;95168.34;5010060;28;20499;-61
2022/03/18 06:44:00;;;;;;;221.35;192.48;;;;;;;15.76;35.91;95162.53;5009114;28;20452;-62
2022/03/18 06:46:26;;;;;;;221.38;188.32;;;;;;;15.78;35.74;95165.59;5018098;28;20053;-60
2022/03/18 06:48:52;;;;;;;226.40;196.60;;;;;;;15.80;35.59;95169.41;5013666;28;20104;-62
2022/03/18 06:51:18;;;;;;;233.32;202.93;;;;;;;15.80;35.58;95165.94;5008765;28;20053;-62
2022/03/18 06:53:43;;;;;;;223.27;193.90;;;;;;;15.79;35.72;95172.50;5014019;28;20049;-62
2022/03/18 06:56:12;;;;;;;224.38;195.80;;;;;;;15.80;35.78;95177.50;5013857;28;20046;-62
2022/03/18 06:58:38;;;;;;;225.45;196.40;;;;;;;15.82;35.64;95183.25;5015132;28;20398;-61
2022/03/18 07:01:04;;;;;;;223.77;190.70;;;;;;;15.81;35.76;95189.03;5014850;28;20049;-62
2022/03/18 07:03:29;;;;;;;217.65;189.90;;;;;;;15.80;35.72;95190.97;5017413;28;20049;-61
2022/03/18 07:05:55;;;;;;;222.43;197.90;;;;;;;15.82;35.85;95191.34;5015082;28;20486;-61
2022/03/18 07:08:20;;;;;;;223.45;192.68;;;;;;;15.79;35.75;95192.16;5020851;28;20072;-63
2022/03/18 07:10:46;;;;;;;224.90;194.88;;;;;;;15.73;36.19;95195.72;5006581;28;20499;-63
2022/03/18 07:13:11;;;;;;;228.27;195.80;;;;;;;15.63;36.48;95194.72;5014102;28;20049;-63
2022/03/18 07:15:37;;;;;;;229.90;198.15;;;;;;;15.56;36.54;95204.84;5013540;28;20137;-63
2022/03/18 07:18:04;;;;;;;224.40;191.57;;;;;;;15.52;37.04;95204.91;5011710;28;20111;-63
2022/03/18 07:20:35;;;;;;;235.07;197.93;;;;;;;15.55;36.99;95198.69;5016889;28;20063;-63
2022/03/18 07:23:06;;;;;;;226.80;192.98;;;;;;;15.64;36.64;95208.97;5020086;28;20497;-63
2022/03/18 07:25:33;;;;;;;225.20;192.68;;;;;;;15.68;36.55;95206.97;5017681;28;20052;-63
2022/03/18 07:27:59;;;;;;;221.75;189.43;;;;;;;15.69;36.48;95206.56;5015084;28;20050;-62
2022/03/18 07:30:25;;;;;;;216.18;190.57;;;;;;;15.70;36.52;95215.41;5014203;28;20498;-62
2022/03/18 07:32:51;;;;;;;225.80;195.10;;;;;;;15.71;36.45;95211.56;5011754;28;20088;-62
2022/03/18 07:35:17;;;;;;;226.85;197.73;;;;;;;15.70;36.62;95216.19;5007515;28;20049;-61
2022/03/18 07:37:43;;;;;;;229.38;198.63;;;;;;;15.65;36.91;95224.72;5016818;28;20045;-62
2022/03/18 07:40:11;;;;;;;224.88;196.32;;;;;;;15.62;36.95;95222.09;5009840;28;20067;-62
2022/03/18 07:42:46;;;;;;;224.27;196.70;;;;;;;15.64;36.97;95227.84;5018116;28;20532;-61
2022/03/18 07:45:16;;;;;;;229.43;195.65;;;;;;;15.67;37.10;95224.31;5018649;28;20109;-61
2022/03/18 07:47:42;;;;;;;220.90;189.15;;;;;;;15.75;36.68;95233.84;5015348;28;20589;-61
2022/03/18 07:50:08;;;;;;;230.55;200.55;;;;;;;15.80;36.58;95222.59;5006951;28;20056;-61
2022/03/18 07:52:34;;;;;;;225.82;199.45;;;;;;;15.83;36.48;95235.25;5015345;28;20095;-62
2022/03/18 07:54:59;;;;;;;230.88;201.18;;;;;;;15.84;36.35;95228.69;5011307;28;22943;-61
2022/03/18 07:57:25;;;;;;;228.35;197.93;;;;;;;15.86;36.31;95226.34;5012791;28;20057;-62
2022/03/18 07:59:50;;;;;;;222.23;193.60;;;;;;;15.87;36.03;95233.25;5014685;28;20079;-61
2022/03/18 08:02:16;;;;;;;224.93;193.88;;;;;;;15.88;36.09;95236.72;5012073;28;20054;-61
2022/03/18 08:04:42;;;;;;;221.38;195.23;;;;;;;15.88;36.04;95226.69;5010053;28;20046;-62
2022/03/18 08:07:07;;;;;;;231.00;192.30;;;;;;;15.91;36.12;95230.50;5012718;28;20100;-61
2022/03/18 08:09:33;;;;;;;227.18;196.50;;;;;;;15.89;35.95;95230.91;5014463;28;20045;-61
2022/03/18 08:11:58;;;;;;;220.18;191.80;;;;;;;15.91;36.08;95233.97;5013885;28;20506;-62
2022/03/18 08:14:25;;;;;;;224.38;197.63;;;;;;;15.92;36.09;95245.53;5013895;28;20107;-61
2022/03/18 08:16:50;;;;;;;220.80;190.52;;;;;;;15.93;35.80;95247.81;5008343;28;20100;-60
2022/03/18 08:19:16;;;;;;;223.68;194.52;;;;;;;15.94;35.94;95253.97;5011386;28;20045;-60
2022/03/18 08:21:43;;;;;;;217.43;189.45;;;;;;;15.93;35.74;95255.91;5009015;28;20049;-62
2022/03/18 08:24:09;;;;;;;240.93;205.48;;;;;;;15.93;35.94;95253.22;5010606;28;20511;-61
2022/03/18 08:26:37;;;;;;;220.02;189.48;;;;;;;15.93;35.92;95252.44;5010670;28;20046;-61
2022/03/18 08:29:04;;;;;;;218.77;190.77;;;;;;;15.94;36.01;95248.56;5005865;28;20058;-62
2022/03/18 08:31:30;;;;;;;229.07;196.88;;;;;;;15.93;35.81;95247.81;5011003;28;20059;-61
2022/03/18 08:33:56;;;;;;;240.57;205.65;;;;;;;15.94;35.94;95256.66;5010432;28;20468;-61
2022/03/18 08:36:22;;;;;;;218.82;191.23;;;;;;;15.94;35.84;95262.81;5006085;28;20137;-62
2022/03/18 08:38:48;;;;;;;231.35;199.88;;;;;;;15.94;35.98;95262.81;5004372;28;20521;-61
2022/03/18 08:41:14;;;;;;;226.43;198.98;;;;;;;15.95;35.91;95266.28;5005648;28;20128;-61
2022/03/18 08:43:40;;;;;;;228.02;197.32;;;;;;;15.95;35.86;95267.06;5013062;28;20053;-60
2022/03/18 08:46:05;;;;;;;226.45;198.88;;;;;;;15.88;36.12;95279.88;5011333;28;20057;-61
2022/03/18 08:48:31;;;;;;;225.45;196.10;;;;;;;15.84;36.38;95276.47;5007736;28;20057;-60
2022/03/18 08:50:56;;;;;;;225.07;194.15;;;;;;;15.79;36.23;95269.59;5015733;28;20067;-60
2022/03/18 08:53:22;;;;;;;223.90;194.05;;;;;;;15.81;36.27;95280.75;5008678;28;20153;-62
2022/03/18 08:55:48;;;;;;;228.90;202.00;;;;;;;15.83;36.46;95273.00;5009228;28;20081;-61
2022/03/18 08:58:14;;;;;;;227.13;197.82;;;;;;;15.82;36.63;95280.34;5019786;28;20044;-60
2022/03/18 09:00:39;;;;;;;224.98;193.73;;;;;;;15.80;36.53;95271.13;5008853;28;20045;-61
2022/03/18 09:03:05;;;;;;;229.23;200.00;;;;;;;15.82;36.46;95269.56;5007463;28;20100;-61
2022/03/18 09:05:31;;;;;;;222.55;193.68;;;;;;;15.85;36.34;95276.06;5007763;28;20041;-61
2022/03/18 09:07:57;;;;;;;226.82;201.18;;;;;;;15.80;36.42;95277.28;5013590;28;20042;-61
2022/03/18 09:10:23;;;;;;;226.80;196.73;;;;;;;15.79;36.48;95275.00;5006944;28;20053;-62
2022/03/18 09:12:55;;;;;;;230.60;204.00;;;;;;;15.79;36.51;95277.69;5008049;28;20090;-62
2022/03/18 09:15:21;;;;;;;226.55;196.40;;;;;;;15.82;36.71;95276.88;5011927;28;20061;-62
2022/03/18 09:17:47;;;;;;;237.50;204.05;;;;;;;15.86;36.54;95284.94;5010241;28;20037;-61
2022/03/18 09:20:14;;;;;;;231.35;199.40;;;;;;;15.86;36.10;95276.84;5010461;28;20054;-60
2022/03/18 09:22:39;;;;;;;225.40;194.70;;;;;;;15.83;36.29;95286.50;5013112;28;20053;-62
2022/03/18 09:25:05;;;;;;;222.32;193.93;;;;;;;15.77;36.39;95280.03;5015104;28;20034;-60
2022/03/18 09:27:32;;;;;;;227.20;195.13;;;;;;;15.81;36.30;95288.84;5010651;28;20040;-61
2022/03/18 09:29:59;;;;;;;222.82;196.60;;;;;;;15.86;36.23;95290.31;5019896;28;20088;-61
2022/03/18 09:32:27;;;;;;;226.63;197.02;;;;;;;15.78;36.54;95295.81;5012056;28;20348;-61
2022/03/18 09:34:52;;;;;;;225.27;199.30;;;;;;;15.72;36.24;95292.06;5010999;28;20050;-61
2022/03/18 09:37:18;;;;;;;231.70;201.95;;;;;;;15.77;36.31;95293.53;5012544;28;20045;-62
2022/03/18 09:39:44;;;;;;;221.27;192.15;;;;;;;15.79;36.46;95291.94;5022290;28;20107;-60
2022/03/18 09:42:09;;;;;;;224.38;195.55;;;;;;;15.77;36.54;95293.53;5017883;28;20049;-61
2022/03/18 09:44:37;;;;;;;225.82;198.32;;;;;;;15.80;36.27;95296.19;5013200;28;20179;-61
2022/03/18 09:47:07;;;;;;;227.73;192.65;;;;;;;15.81;36.52;95303.09;5021341;28;20049;-61
2022/03/18 09:49:34;;;;;;;227.80;194.75;;;;;;;15.79;36.51;95301.97;5007789;28;20158;-61
2022/03/18 09:52:01;;;;;;;228.98;199.40;;;;;;;15.79;36.54;95300.03;5014902;28;20049;-61
2022/03/18 09:54:29;;;;;;;238.38;201.50;;;;;;;15.74;36.74;95299.72;5008323;28;20478;-60
2022/03/18 09:56:55;;;;;;;227.40;193.50;;;;;;;15.70;36.70;95304.41;5014691;28;20054;-61
2022/03/18 09:59:26;;;;;;;228.15;194.38;;;;;;;15.72;36.78;95308.22;5017773;28;20037;-61
2022/03/18 10:02:30;;;;;;;228.65;199.27;;;;;;;15.71;36.80;95311.34;5017429;28;20042;-60
2022/03/18 10:04:58;;;;;;;225.88;193.85;;;;;;;15.79;36.61;95312.75;5007483;28;20038;-61
2022/03/18 10:07:25;;;;;;;221.15;193.27;;;;;;;15.78;36.65;95317.41;5010800;28;20196;-61
2022/03/18 10:10:15;;;;;;;227.02;196.73;;;;;;;15.76;36.42;95308.19;5011242;28;20062;-60
2022/03/18 10:12:47;;;;;;;239.05;203.50;;;;;;;15.84;36.30;95314.25;5007610;28;20167;-59
2022/03/18 10:15:14;;;;;;;228.90;197.77;;;;;;;15.87;36.22;95298.00;5006158;28;20049;-60
2022/03/18 10:17:51;;;;;;;230.60;201.88;;;;;;;15.82;35.95;95303.84;5019823;28;20489;-62
2022/03/18 10:20:27;;;;;;;225.75;192.70;;;;;;;15.84;35.75;95303.44;5010319;28;20057;-61
2022/03/18 10:22:56;;;;;;;229.52;198.35;;;;;;;15.71;35.80;95308.63;5014873;28;20089;-62
2022/03/18 10:25:51;;;;;;;226.23;193.35;;;;;;;15.67;35.56;95313.31;5009890;28;20057;-62
2022/03/18 10:28:41;;;;;;;241.43;203.27;;;;;;;15.64;35.21;95320.28;5008128;28;20486;-59
2022/03/18 10:31:21;;;;;;;226.05;188.90;;;;;;;15.47;35.23;95321.28;5012530;28;20103;-62
2022/03/18 10:39:31;;;;;;;215.90;182.50;;;;;;;15.49;34.70;95319.72;5012132;28;20045;-61
2022/03/18 10:42:09;;;;;;;223.77;190.95;;;;;;;15.48;34.68;95320.88;5011344;28;20458;-62
2022/03/18 10:44:51;;;;;;;220.57;183.45;;;;;;;15.43;34.68;95320.56;5009055;28;20041;-62
2022/03/18 10:47:32;;;;;;;231.10;193.23;;;;;;;15.41;34.57;95322.91;5017544;28;20041;-61
2022/03/18 10:50:09;;;;;;;223.25;188.73;;;;;;;15.49;34.20;95327.78;5007952;28;20046;-61
2022/03/18 10:52:39;;;;;;;226.88;191.05;;;;;;;15.48;34.44;95325.50;5010843;28;20402;-62
2022/03/18 10:55:22;;;;;;;219.38;185.90;;;;;;;15.54;34.36;95328.50;5011235;28;20525;-61
2022/03/18 10:58:15;;;;;;;223.65;188.82;;;;;;;15.51;34.38;95324.69;5008637;28;20042;-60
2022/03/18 11:00:50;;;;;;;230.52;194.00;;;;;;;15.48;34.21;95326.28;5015511;28;20103;-60
2022/03/18 11:03:16;;;;;;;226.05;194.50;;;;;;;15.51;34.27;95318.53;5010646;28;20473;-62
2022/03/18 11:05:47;;;;;;;223.32;189.07;;;;;;;15.55;34.41;95321.94;5007876;28;20441;-61
2022/03/18 11:08:22;;;;;;;221.70;188.90;;;;;;;15.52;33.99;95323.53;5006502;28;20096;-61
2022/03/18 11:13:52;;;;;;;224.82;188.05;;;;;;;15.41;33.95;95320.97;5006661;28;20050;-61
2022/03/18 11:16:19;;;;;;;218.10;186.05;;;;;;;15.53;34.09;95330.44;5009247;28;20426;-61
2022/03/18 11:18:46;;;;;;;230.38;191.85;;;;;;;15.65;33.72;95332.59;5007085;28;20052;-61
2022/03/18 11:21:13;;;;;;;228.73;191.43;;;;;;;15.71;33.58;95333.69;5021909;28;20121;-62
2022/03/18 11:23:40;;;;;;;223.73;193.43;;;;;;;15.74;33.82;95332.09;5012916;28;20077;-61
2022/03/18 11:26:07;;;;;;;218.18;186.00;;;;;;;15.59;33.81;95333.50;5005492;28;20057;-61